Lewistown, Montana
Current Conditions -  °F | °C
As of 11:54 PM on Saturday 22 Nov 2014 (Local Time) from KLWT Reporting Station
Overcast Overcast  
Wind Chill: 27°   Ceiling: 6500
Heat Index: 36°   Visibility: 10mi
Dew Point: 17°   Wind: 14mph
Humidity: 46%   Direction: 280°W
Pressure: 29.63"   Gusts: NA
Location:  47.07°N, 109.42°W
Report Text: KLWT 230654Z AUTO 28012KT 10SM OVC065 02/M08 A2963 RMK AO2 SLP036 T00221083 401060017
Loading
Personal Weather Stations






























Interactive Weather Map New forecast layout! Learn more

10-Day Weather Forecast

Advertisements
Track Severe Weather on mobile